DIAPDBBB

Guest
Details From DIAP - Abidjan Felix Houphouet Boigny Intl
To DBBB - CADJEHOUN
Flight Number -
Tags decoded
Created
Modified
Stats Distance 383 nm / 709 km
Max Altitude 0 ft / 0 m
Waypoints 2
Social Downloads 0
Likes 0
Share VATSIM

Download

Looking for another format? Having issues loading an existing format? Contact us
Advertisement - Login to hide

Notes

Requested: DIAP DBBB

Route

DIAP DBBB

ID Type Via Altitude Latitude Longitude Leg Dist Tot Dist Heading (true) Name
O DIAP APT - 0 ft / 0 m 5.26139˚ -3.92630˚ - 0 nm - Abidjan Felix Houphouet Boigny Intl
O DBBB APT - 0 ft / 0 m 6.35723˚ 2.38435˚ 382 nm 382 nm 80° / 80° CADJEHOUN

Altitude Profile

Advertisement - Login to hide

Weather


0- 5 10 15 20 25 30 35+ Temperature / ° C

Clouds and Precipitation
Forecast for 2017-12-16 18:00 UTC. Updated 2 hours ago

Ground ~20,000 ft ~40,000 ft Winds

DIAP

Details ICAO DIAP (ABJ)
Name Abidjan Felix Houphouet Boigny Intl
Region Côte d'Ivoire
Timezone Africa/Abidjan (UTC+0.0)
Stats Elevation 21 ft / 6 m (AMSL)
Location 5.261386° -3.926296°
Runways 1
Magnetic Variation 4.682° W

METAR

DIAP 161630Z 22010KT 7000 SCT012 FEW020CB 30/26 Q1009 NOSIG

Decode

TAF

TAF DIAP 161100Z 1612/1718 21010KT 7000 SCT012 BECMG 1612/1615 4000 TSRA BKN012 FEW020CB BECMG 1619/1621 NSW PROB30 1702/1708 VRB02KT 2000 BR FEW010 PROB30 TEMPO 1714/1718 TS BKN012 FEW020CB

Decode

Departure Runways

ID Width Length Bearing (true) Bearing (mag) Surface Threshold Offset Overrun Length
03 164 ft / 50 m 9,889 ft / 3,014 m 22.27° 26.95° Asphalt 0 ft / 0 m 197 ft / 60 m
21 164 ft / 50 m 9,889 ft / 3,014 m 202.27° 206.95° Asphalt 0 ft / 0 m 328 ft / 100 m

DBBB

Details ICAO DBBB (COO)
Name CADJEHOUN
Region Benin
Timezone Africa/Porto-Novo (UTC+1.0)
Stats Elevation 19 ft / 6 m (AMSL)
Location 6.357227° 2.384353°
Runways 1
Magnetic Variation 2.521° W

METAR

DBBB 161600Z 21010KT 8000 FEW013 30/26 Q1008 NOSIG

Decode

TAF

TAF DBBB 161100Z 1612/1718 22010KT 8000 SCT012 PROB30 TEMPO 1613/1619 TS BKN012 FEW025CB

Decode

Destination Runways

ID Width Length Bearing (true) Bearing (mag) Surface Threshold Offset Overrun Length
06 148 ft / 45 m 7,887 ft / 2,404 m 52.94° 55.46° Asphalt 125 ft / 38 m 199 ft / 61 m
24 148 ft / 45 m 7,887 ft / 2,404 m 232.94° 235.46° Asphalt 0 ft / 0 m 416 ft / 127 m

Approach Navaids

Runway Type Ident Frequency Range Bearing (true) Bearing (mag) Slope Elevation
24 Localiser ICN 109.50 MHz 18 nm / 33 km 232.72° 235.25° - 19 ft / 6 m (AMSL)
24 Glidescope ICN 109.50 MHz 10 nm / 19 km 232.94° 235.46° 3.00° 19 ft / 6 m (AMSL)
24 DME ICN 109.50 MHz 18 nm / 33 km - - - 19 ft / 6 m (AMSL)

Popular Alternatives